createdAt,value
2019-05-12T00:00:08.100Z,1014.11
2019-05-12T00:01:09.138Z,1014.13
2019-05-12T00:02:07.777Z,1014.11
2019-05-12T00:03:08.465Z,1014.12
2019-05-12T00:04:08.223Z,1014.14
2019-05-12T00:05:08.823Z,1014.14
2019-05-12T00:06:08.768Z,1014.12
2019-05-12T00:07:08.768Z,1014.16
2019-05-12T00:08:08.326Z,1014.13
2019-05-12T00:09:08.395Z,1014.16
2019-05-12T00:10:08.589Z,1014.17
2019-05-12T00:11:08.936Z,1014.17
2019-05-12T00:12:08.241Z,1014.21
2019-05-12T00:13:08.428Z,1014.20
2019-05-12T00:14:08.694Z,1014.18
2019-05-12T00:15:08.188Z,1014.21
2019-05-12T00:16:08.805Z,1014.24
2019-05-12T00:17:08.191Z,1014.20
2019-05-12T00:18:09.191Z,1014.20
2019-05-12T00:19:09.214Z,1014.21
2019-05-12T00:20:08.523Z,1014.26
2019-05-12T00:21:08.772Z,1014.33
2019-05-12T00:22:07.733Z,1014.31
2019-05-12T00:23:23.160Z,1014.45
2019-05-12T00:24:08.461Z,1014.39
2019-05-12T00:25:08.762Z,1014.45
2019-05-12T00:26:07.958Z,1014.36
2019-05-12T00:27:08.514Z,1014.35
2019-05-12T00:28:07.904Z,1014.42
2019-05-12T00:29:07.780Z,1014.44
2019-05-12T00:30:09.963Z,1014.40
2019-05-12T00:31:08.356Z,1014.40
2019-05-12T00:32:08.584Z,1014.43
2019-05-12T00:33:09.362Z,1014.46
2019-05-12T00:34:07.820Z,1014.47
2019-05-12T00:35:08.026Z,1014.51
2019-05-12T00:36:08.020Z,1014.50
2019-05-12T00:37:08.288Z,1014.50
2019-05-12T00:38:09.155Z,1014.55
2019-05-12T00:39:08.599Z,1014.48
2019-05-12T00:40:08.878Z,1014.53
2019-05-12T00:41:08.772Z,1014.54
2019-05-12T00:42:07.835Z,1014.49
2019-05-12T00:43:08.671Z,1014.53
2019-05-12T00:44:08.842Z,1014.55
2019-05-12T00:45:08.105Z,1014.47
2019-05-12T00:46:07.963Z,1014.57
2019-05-12T00:47:08.140Z,1014.50
2019-05-12T00:48:09.254Z,1014.57
2019-05-12T00:49:08.049Z,1014.56
2019-05-12T00:50:08.022Z,1014.59
2019-05-12T00:51:07.789Z,1014.56
2019-05-12T00:52:08.082Z,1014.57
2019-05-12T00:53:09.169Z,1014.63
2019-05-12T00:54:09.221Z,1014.62
2019-05-12T00:55:07.886Z,1014.64
2019-05-12T00:56:08.439Z,1014.67
2019-05-12T00:57:07.797Z,1014.70
2019-05-12T00:58:08.194Z,1014.61
2019-05-12T00:59:08.360Z,1014.59
2019-05-12T01:00:08.736Z,1014.67
2019-05-12T01:01:08.178Z,1014.68
2019-05-12T01:02:08.015Z,1014.68
2019-05-12T01:03:08.634Z,1014.70
2019-05-12T01:04:08.811Z,1014.72
2019-05-12T01:05:08.615Z,1014.71
2019-05-12T01:06:08.476Z,1014.73
2019-05-12T01:07:08.643Z,1014.76
2019-05-12T01:08:09.069Z,1014.77
2019-05-12T01:09:08.827Z,1014.78
2019-05-12T01:10:08.623Z,1014.79
2019-05-12T01:11:08.810Z,1014.74
2019-05-12T01:12:07.969Z,1014.76
2019-05-12T01:13:08.599Z,1014.81
2019-05-12T01:14:08.575Z,1014.80
2019-05-12T01:15:07.490Z,1014.84
2019-05-12T01:16:08.076Z,1014.84
2019-05-12T01:17:08.415Z,1014.85
2019-05-12T01:18:09.473Z,1014.85
2019-05-12T01:19:07.977Z,1014.88
2019-05-12T01:20:08.918Z,1014.90
2019-05-12T01:21:07.736Z,1014.92
2019-05-12T01:22:08.077Z,1014.90
2019-05-12T01:23:08.557Z,1014.93
2019-05-12T01:24:08.891Z,1014.95
2019-05-12T01:25:08.701Z,1014.92
2019-05-12T01:26:08.821Z,1014.95
2019-05-12T01:27:08.627Z,1014.99
2019-05-12T01:28:08.128Z,1014.99
2019-05-12T01:29:08.426Z,1014.97
2019-05-12T01:30:08.728Z,1014.99
2019-05-12T01:31:08.556Z,1015.01
2019-05-12T01:32:07.955Z,1015.05
2019-05-12T01:33:08.646Z,1015.08
2019-05-12T01:34:08.127Z,1015.08
2019-05-12T01:35:08.119Z,1015.07
2019-05-12T01:36:07.989Z,1015.11
2019-05-12T01:37:07.982Z,1015.09
2019-05-12T01:38:08.007Z,1015.14
2019-05-12T01:39:08.234Z,1015.15
2019-05-12T01:40:08.856Z,1015.20
2019-05-12T01:41:08.707Z,1015.18
2019-05-12T01:42:09.013Z,1015.23
2019-05-12T01:43:08.629Z,1015.17
2019-05-12T01:44:08.600Z,1015.25
2019-05-12T01:45:09.005Z,1015.25
2019-05-12T01:46:08.070Z,1015.24
2019-05-12T01:47:08.365Z,1015.26
2019-05-12T01:48:08.809Z,1015.32
2019-05-12T01:49:08.273Z,1015.32
2019-05-12T01:50:08.789Z,1015.31
2019-05-12T01:51:08.356Z,1015.33
2019-05-12T01:52:08.588Z,1015.37
2019-05-12T01:53:08.144Z,1015.37
2019-05-12T01:54:11.638Z,1015.40
2019-05-12T01:55:08.170Z,1015.40
2019-05-12T01:56:07.852Z,1015.49
2019-05-12T01:57:08.093Z,1015.44
2019-05-12T01:58:08.298Z,1015.43
2019-05-12T01:59:08.190Z,1015.48
2019-05-12T02:00:08.049Z,1015.49
2019-05-12T02:01:08.245Z,1015.49
2019-05-12T02:02:08.482Z,1015.55
2019-05-12T02:03:08.697Z,1015.58
2019-05-12T02:04:07.732Z,1015.51
2019-05-12T02:05:08.506Z,1015.59
2019-05-12T02:06:08.429Z,1015.66
2019-05-12T02:07:08.346Z,1015.64
2019-05-12T02:08:06.326Z,1015.66
2019-05-12T02:09:08.066Z,1015.71
2019-05-12T02:10:09.109Z,1015.69
2019-05-12T02:11:07.927Z,1015.70
2019-05-12T02:12:08.191Z,1015.74
2019-05-12T02:13:07.940Z,1015.75
2019-05-12T02:14:06.297Z,1015.76
2019-05-12T02:15:08.162Z,1015.83
2019-05-12T02:16:08.210Z,1015.86
2019-05-12T02:17:08.686Z,1015.80
2019-05-12T02:18:06.214Z,1015.88
2019-05-12T02:19:08.767Z,1015.81
2019-05-12T02:20:07.714Z,1015.89
2019-05-12T02:21:08.285Z,1015.76
2019-05-12T02:22:08.321Z,1015.85
2019-05-12T02:23:08.593Z,1015.83
2019-05-12T02:24:07.794Z,1015.86
2019-05-12T02:25:08.117Z,1015.87
2019-05-12T02:26:08.277Z,1015.90
2019-05-12T02:27:08.173Z,1015.90
2019-05-12T02:28:06.101Z,1015.88
2019-05-12T02:29:07.893Z,1015.96
2019-05-12T02:30:09.758Z,1015.92
2019-05-12T02:31:09.254Z,1015.87
2019-05-12T02:32:06.061Z,1015.88
2019-05-12T02:33:06.051Z,1015.90
2019-05-12T02:34:06.077Z,1015.94
2019-05-12T02:35:06.091Z,1015.89
2019-05-12T02:36:06.026Z,1015.92
2019-05-12T02:37:06.033Z,1015.91
2019-05-12T02:38:05.992Z,1015.88
2019-05-12T02:39:05.984Z,1015.94
2019-05-12T02:40:05.966Z,1015.87
2019-05-12T02:41:05.964Z,1015.89
2019-05-12T02:42:05.948Z,1015.93
2019-05-12T02:43:06.084Z,1015.86
2019-05-12T02:44:05.946Z,1015.93
2019-05-12T02:45:05.937Z,1015.93
2019-05-12T02:46:05.905Z,1015.92
2019-05-12T02:47:05.897Z,1015.92
2019-05-12T02:48:06.030Z,1015.96
2019-05-12T02:49:05.871Z,1015.94
2019-05-12T02:50:05.882Z,1015.91
2019-05-12T02:51:05.860Z,1015.96
2019-05-12T02:52:05.842Z,1016.01
2019-05-12T02:53:05.998Z,1016.02
2019-05-12T02:54:05.965Z,1016.05
2019-05-12T02:55:06.539Z,1015.98
2019-05-12T02:56:05.808Z,1016.11
2019-05-12T02:57:05.785Z,1016.03
2019-05-12T02:58:06.438Z,1016.07
2019-05-12T02:59:05.860Z,1016.04
2019-05-12T03:00:05.764Z,1016.05
2019-05-12T03:01:05.812Z,1016.10
2019-05-12T03:02:05.741Z,1016.07
2019-05-12T03:03:05.754Z,1016.07
2019-05-12T03:04:06.145Z,1016.08
2019-05-12T03:05:05.864Z,1016.15
2019-05-12T03:06:05.758Z,1016.13
2019-05-12T03:07:06.717Z,1016.15
2019-05-12T03:08:05.682Z,1016.14
2019-05-12T03:09:05.659Z,1016.11
2019-05-12T03:10:05.645Z,1016.17
2019-05-12T03:11:06.218Z,1016.17
2019-05-12T03:12:06.180Z,1016.23
2019-05-12T03:13:05.662Z,1016.25
2019-05-12T03:14:05.619Z,1016.21
2019-05-12T03:15:05.855Z,1016.25
2019-05-12T03:16:05.576Z,1016.26
2019-05-12T03:17:05.594Z,1016.22
2019-05-12T03:18:06.724Z,1016.36
2019-05-12T03:19:05.627Z,1016.35
2019-05-12T03:20:05.550Z,1016.35
2019-05-12T03:21:06.020Z,1016.36
2019-05-12T03:22:05.517Z,1016.43
2019-05-12T03:23:06.511Z,1016.39
2019-05-12T03:24:06.501Z,1016.32
2019-05-12T03:25:15.503Z,1016.40
2019-05-12T03:26:06.477Z,1016.51
2019-05-12T03:27:05.462Z,1016.45
2019-05-12T03:28:08.852Z,1016.42
2019-05-12T03:29:06.126Z,1016.47
2019-05-12T03:30:11.285Z,1016.46
2019-05-12T03:31:08.258Z,1016.39
2019-05-12T03:32:08.389Z,1016.47
2019-05-12T03:33:09.614Z,1016.43
2019-05-12T03:34:09.164Z,1016.46
2019-05-12T03:35:08.871Z,1016.48
2019-05-12T03:36:08.866Z,1016.52
2019-05-12T03:37:07.812Z,1016.50
2019-05-12T03:38:05.364Z,1016.51
2019-05-12T03:39:05.334Z,1016.57
2019-05-12T03:40:05.639Z,1016.54
2019-05-12T03:41:05.611Z,1016.58
2019-05-12T03:42:05.399Z,1016.54
2019-05-12T03:43:05.797Z,1016.62
2019-05-12T03:44:05.409Z,1016.61
2019-05-12T03:45:05.331Z,1016.59
2019-05-12T03:46:05.577Z,1016.63
2019-05-12T03:47:05.337Z,1016.67
2019-05-12T03:48:05.241Z,1016.64
2019-05-12T03:49:05.698Z,1016.67
2019-05-12T03:50:05.213Z,1016.68
2019-05-12T03:51:05.818Z,1016.70
2019-05-12T03:52:05.418Z,1016.76
2019-05-12T03:53:10.283Z,1016.70
2019-05-12T03:54:06.195Z,1016.76
2019-05-12T03:55:05.737Z,1016.77
2019-05-12T03:56:05.162Z,1016.79
2019-05-12T03:57:05.138Z,1016.80
2019-05-12T03:58:05.124Z,1016.85
2019-05-12T03:59:05.481Z,1016.82
2019-05-12T04:00:05.512Z,1016.81
2019-05-12T04:01:05.089Z,1016.87
2019-05-12T04:02:05.105Z,1016.88
2019-05-12T04:03:05.233Z,1016.84
2019-05-12T04:04:05.516Z,1016.84
2019-05-12T04:05:05.468Z,1016.81
2019-05-12T04:06:05.054Z,1016.81
2019-05-12T04:07:05.346Z,1016.82
2019-05-12T04:08:05.929Z,1016.91
2019-05-12T04:09:05.010Z,1016.90
2019-05-12T04:10:05.434Z,1016.90
2019-05-12T04:11:05.540Z,1016.99
2019-05-12T04:12:05.444Z,1017.02
2019-05-12T04:13:05.057Z,1016.99
2019-05-12T04:14:05.606Z,1017.02
2019-05-12T04:15:05.405Z,1017.08
2019-05-12T04:16:05.195Z,1017.07
2019-05-12T04:17:05.089Z,1017.07
2019-05-12T04:18:06.143Z,1017.03
2019-05-12T04:19:05.639Z,1017.07
2019-05-12T04:20:05.055Z,1017.13
2019-05-12T04:21:05.722Z,1017.12
2019-05-12T04:22:05.688Z,1017.15
2019-05-12T04:23:06.417Z,1017.15
2019-05-12T04:24:05.911Z,1017.15
2019-05-12T04:25:06.162Z,1017.22
2019-05-12T04:26:11.322Z,1017.25
2019-05-12T04:27:05.869Z,1017.28
2019-05-12T04:28:05.066Z,1017.30
2019-05-12T04:29:05.375Z,1017.40
2019-05-12T04:30:05.600Z,1017.42
2019-05-12T04:31:05.602Z,1017.42
2019-05-12T04:32:05.206Z,1017.48
2019-05-12T04:33:05.306Z,1017.45
2019-05-12T04:34:05.473Z,1017.46
2019-05-12T04:35:05.034Z,1017.42
2019-05-12T04:36:05.587Z,1017.50
2019-05-12T04:37:04.746Z,1017.48
2019-05-12T04:38:05.206Z,1017.52
2019-05-12T04:39:04.683Z,1017.51
2019-05-12T04:40:05.605Z,1017.56
2019-05-12T04:41:05.783Z,1017.52
2019-05-12T04:42:05.369Z,1017.57
2019-05-12T04:43:06.215Z,1017.55
2019-05-12T04:44:05.885Z,1017.58
2019-05-12T04:45:04.802Z,1017.60
2019-05-12T04:46:05.216Z,1017.63
2019-05-12T04:47:05.510Z,1017.69
2019-05-12T04:48:05.644Z,1017.66
2019-05-12T04:49:05.498Z,1017.72
2019-05-12T04:50:05.724Z,1017.73
2019-05-12T04:51:05.089Z,1017.79
2019-05-12T04:52:05.379Z,1017.82
2019-05-12T04:53:05.991Z,1017.78
2019-05-12T04:54:05.693Z,1017.82
2019-05-12T04:55:04.943Z,1017.84
2019-05-12T04:56:14.736Z,1017.82
2019-05-12T04:57:05.481Z,1017.81
2019-05-12T04:58:04.795Z,1017.83
2019-05-12T04:59:05.200Z,1017.87
2019-05-12T05:00:05.236Z,1017.95
2019-05-12T05:01:06.316Z,1017.95
2019-05-12T05:02:05.442Z,1017.96
2019-05-12T05:03:05.230Z,1017.92
2019-05-12T05:04:05.371Z,1017.99
2019-05-12T05:05:05.341Z,1018.03
2019-05-12T05:06:04.647Z,1018.06
2019-05-12T05:07:04.584Z,1018.05
2019-05-12T05:08:04.719Z,1018.05
2019-05-12T05:09:05.179Z,1018.06
2019-05-12T05:10:04.794Z,1018.13
2019-05-12T05:11:04.325Z,1018.11
2019-05-12T05:12:04.715Z,1018.13
2019-05-12T05:13:05.505Z,1018.17
2019-05-12T05:14:04.482Z,1018.21
2019-05-12T05:15:05.409Z,1018.15
2019-05-12T05:16:05.421Z,1018.20
2019-05-12T05:17:05.594Z,1018.18
2019-05-12T05:18:06.331Z,1018.27
2019-05-12T05:19:04.241Z,1018.31
2019-05-12T05:20:04.277Z,1018.34
2019-05-12T05:21:04.772Z,1018.27
2019-05-12T05:22:04.407Z,1018.34
2019-05-12T05:23:04.353Z,1018.33
2019-05-12T05:24:04.211Z,1018.40
2019-05-12T05:25:04.374Z,1018.39
2019-05-12T05:26:04.163Z,1018.38
2019-05-12T05:27:04.436Z,1018.42
2019-05-12T05:28:04.330Z,1018.55
2019-05-12T05:29:04.478Z,1018.56
2019-05-12T05:30:04.242Z,1018.57
2019-05-12T05:31:04.094Z,1018.60
2019-05-12T05:32:04.098Z,1018.62
2019-05-12T05:33:04.916Z,1018.60
2019-05-12T05:34:04.929Z,1018.62
2019-05-12T05:35:07.538Z,1018.70
2019-05-12T05:36:04.054Z,1018.72
2019-05-12T05:37:05.236Z,1018.72
2019-05-12T05:38:04.571Z,1018.78
2019-05-12T05:39:04.405Z,1018.76
2019-05-12T05:40:04.149Z,1018.82
2019-05-12T05:41:05.809Z,1018.91
2019-05-12T05:42:04.986Z,1018.87
2019-05-12T05:43:12.644Z,1018.87
2019-05-12T05:44:04.958Z,1018.92
2019-05-12T05:45:04.843Z,1018.88
2019-05-12T05:46:07.893Z,1018.91
2019-05-12T05:47:04.360Z,1018.95
2019-05-12T05:48:05.527Z,1018.95
2019-05-12T05:49:04.913Z,1018.96
2019-05-12T05:50:04.768Z,1019.04
2019-05-12T05:51:05.677Z,1019.12
2019-05-12T05:52:03.868Z,1019.03
2019-05-12T05:53:04.296Z,1019.02
2019-05-12T05:54:04.122Z,1019.10
2019-05-12T05:55:05.787Z,1019.03
2019-05-12T05:56:04.835Z,1019.04
2019-05-12T05:57:06.121Z,1019.04
2019-05-12T05:58:08.518Z,1019.07
2019-05-12T05:59:04.842Z,1019.08
2019-05-12T06:00:07.151Z,1019.16
2019-05-12T06:01:08.063Z,1019.12
2019-05-12T06:02:04.949Z,1019.21
2019-05-12T06:03:05.397Z,1019.15
2019-05-12T06:04:08.343Z,1019.30
2019-05-12T06:05:04.775Z,1019.17
2019-05-12T06:06:10.357Z,1019.24
2019-05-12T06:07:04.707Z,1019.28
2019-05-12T06:08:04.327Z,1019.28
2019-05-12T06:09:03.794Z,1019.28
2019-05-12T06:10:04.172Z,1019.23
2019-05-12T06:11:04.843Z,1019.39
2019-05-12T06:12:05.157Z,1019.37
2019-05-12T06:13:04.659Z,1019.42
2019-05-12T06:14:11.412Z,1019.44
2019-05-12T06:15:04.652Z,1019.50
2019-05-12T06:16:04.435Z,1019.47
2019-05-12T06:17:04.293Z,1019.46
2019-05-12T06:18:03.958Z,1019.49
2019-05-12T06:19:03.664Z,1019.48
2019-05-12T06:20:04.465Z,1019.48
2019-05-12T06:21:03.639Z,1019.51
2019-05-12T06:22:04.043Z,1019.40
2019-05-12T06:23:04.324Z,1019.43
2019-05-12T06:24:03.763Z,1019.46
2019-05-12T06:25:04.770Z,1019.48
2019-05-12T06:26:04.684Z,1019.40
2019-05-12T06:27:14.373Z,1019.52
2019-05-12T06:28:08.000Z,1019.55
2019-05-12T06:29:04.390Z,1019.46
2019-05-12T06:30:06.166Z,1019.52
2019-05-12T06:31:04.291Z,1019.48
2019-05-12T06:32:06.199Z,1019.43
2019-05-12T06:33:04.423Z,1019.52
2019-05-12T06:34:06.298Z,1019.53
2019-05-12T06:35:04.709Z,1019.52
2019-05-12T06:36:04.479Z,1019.50
2019-05-12T06:37:11.980Z,1019.48
2019-05-12T06:38:05.163Z,1019.48
2019-05-12T06:39:04.392Z,1019.50
2019-05-12T06:40:03.701Z,1019.51
2019-05-12T06:41:03.678Z,1019.57
2019-05-12T06:42:12.576Z,1019.58
2019-05-12T06:43:04.677Z,1019.53
2019-05-12T06:44:03.818Z,1019.65
2019-05-12T06:45:03.877Z,1019.61
2019-05-12T06:46:03.709Z,1019.55
2019-05-12T06:47:08.055Z,1019.55
2019-05-12T06:48:04.265Z,1019.62
2019-05-12T06:49:10.208Z,1019.61
2019-05-12T06:50:04.234Z,1019.64
2019-05-12T06:51:04.029Z,1019.67
2019-05-12T06:52:07.091Z,1019.68
2019-05-12T06:53:05.192Z,1019.68
2019-05-12T06:54:09.994Z,1019.72
2019-05-12T06:55:04.238Z,1019.71
2019-05-12T06:56:04.476Z,1019.68
2019-05-12T06:57:18.756Z,1019.68
2019-05-12T06:58:04.658Z,1019.78
2019-05-12T06:59:09.824Z,1019.78
2019-05-12T07:00:04.706Z,1019.72
2019-05-12T07:01:10.280Z,1019.76
2019-05-12T07:02:04.101Z,1019.79
2019-05-12T07:03:03.940Z,1019.79
2019-05-12T07:04:06.715Z,1019.84
2019-05-12T07:05:04.494Z,1019.78
2019-05-12T07:06:04.095Z,1019.69
2019-05-12T07:07:03.646Z,1019.69
2019-05-12T07:08:04.199Z,1019.70
2019-05-12T07:09:09.241Z,1019.75
2019-05-12T07:10:11.603Z,1019.76
2019-05-12T07:11:06.078Z,1019.76
2019-05-12T07:12:06.997Z,1019.76
2019-05-12T07:13:05.724Z,1019.81
2019-05-12T07:14:07.775Z,1019.78
2019-05-12T07:15:04.052Z,1019.79
2019-05-12T07:16:03.758Z,1019.81
2019-05-12T07:17:05.840Z,1019.81
2019-05-12T07:18:04.231Z,1019.83
2019-05-12T07:19:07.750Z,1019.85
2019-05-12T07:20:04.064Z,1019.92
2019-05-12T07:21:04.132Z,1019.88
2019-05-12T07:22:03.611Z,1019.98
2019-05-12T07:23:04.137Z,1019.91
2019-05-12T07:24:06.755Z,1019.94
2019-05-12T07:25:04.545Z,1019.92
2019-05-12T07:26:04.813Z,1019.90
2019-05-12T07:27:08.969Z,1019.97
2019-05-12T07:28:07.498Z,1019.96
2019-05-12T07:29:04.481Z,1019.96
2019-05-12T07:30:04.710Z,1019.99
2019-05-12T07:31:03.892Z,1020.08
2019-05-12T07:32:07.113Z,1020.05
2019-05-12T07:33:04.527Z,1020.05
2019-05-12T07:34:07.101Z,1020.17
2019-05-12T07:35:03.950Z,1020.18
2019-05-12T07:36:06.454Z,1020.23
2019-05-12T07:37:04.373Z,1020.17
2019-05-12T07:38:04.605Z,1020.21
2019-05-12T07:39:04.511Z,1020.22
2019-05-12T07:40:04.824Z,1020.18
2019-05-12T07:41:08.858Z,1020.25
2019-05-12T07:42:03.729Z,1020.27
2019-05-12T07:43:04.053Z,1020.30
2019-05-12T07:44:03.562Z,1020.29
2019-05-12T07:45:03.977Z,1020.30
2019-05-12T07:46:06.885Z,1020.32
2019-05-12T07:47:03.558Z,1020.31
2019-05-12T07:48:05.631Z,1020.32
2019-05-12T07:49:03.993Z,1020.31
2019-05-12T07:50:04.520Z,1020.23
2019-05-12T07:51:04.166Z,1020.23
2019-05-12T07:52:03.594Z,1020.24
2019-05-12T07:53:04.021Z,1020.21
2019-05-12T07:54:04.088Z,1020.18
2019-05-12T07:55:04.304Z,1020.26
2019-05-12T07:56:04.154Z,1020.20
2019-05-12T07:57:11.118Z,1020.25
2019-05-12T07:58:09.977Z,1020.17
2019-05-12T07:59:04.383Z,1020.14
2019-05-12T08:00:03.597Z,1020.18
2019-05-12T08:01:05.102Z,1020.21
2019-05-12T08:02:04.026Z,1020.25
2019-05-12T08:03:08.065Z,1020.30
2019-05-12T08:04:04.585Z,1020.33
2019-05-12T08:05:03.803Z,1020.28
2019-05-12T08:06:04.625Z,1020.31
2019-05-12T08:07:03.865Z,1020.31
2019-05-12T08:08:09.097Z,1020.28
2019-05-12T08:09:04.147Z,1020.36
2019-05-12T08:10:07.209Z,1020.41
2019-05-12T08:11:04.447Z,1020.41
2019-05-12T08:12:03.979Z,1020.38
2019-05-12T08:13:04.527Z,1020.46
2019-05-12T08:14:03.599Z,1020.36
2019-05-12T08:15:07.762Z,1020.37
2019-05-12T08:16:03.781Z,1020.44
2019-05-12T08:17:11.123Z,1020.38
2019-05-12T08:18:07.386Z,1020.39
2019-05-12T08:19:03.996Z,1020.33
2019-05-12T08:20:04.349Z,1020.43
2019-05-12T08:21:03.746Z,1020.37
2019-05-12T08:22:04.199Z,1020.36
2019-05-12T08:23:05.746Z,1020.31
2019-05-12T08:24:03.722Z,1020.27
2019-05-12T08:25:04.174Z,1020.23
2019-05-12T08:26:03.714Z,1020.29
2019-05-12T08:27:06.289Z,1020.30
2019-05-12T08:28:12.311Z,1020.33
2019-05-12T08:29:04.154Z,1020.30
2019-05-12T08:30:06.033Z,1020.26
2019-05-12T08:31:03.607Z,1020.40
2019-05-12T08:32:03.819Z,1020.38
2019-05-12T08:33:08.977Z,1020.31
2019-05-12T08:34:04.190Z,1020.38
2019-05-12T08:35:04.874Z,1020.34
2019-05-12T08:36:08.451Z,1020.38
2019-05-12T08:37:04.361Z,1020.43
2019-05-12T08:38:03.900Z,1020.37
2019-05-12T08:39:05.887Z,1020.46
2019-05-12T08:40:05.966Z,1020.46
2019-05-12T08:41:04.257Z,1020.43
2019-05-12T08:42:04.084Z,1020.50
2019-05-12T08:43:08.052Z,1020.40
2019-05-12T08:44:04.590Z,1020.53
2019-05-12T08:45:04.095Z,1020.52
2019-05-12T08:46:07.021Z,1020.45
2019-05-12T08:47:03.915Z,1020.49
2019-05-12T08:48:03.829Z,1020.56
2019-05-12T08:49:03.026Z,1020.50
2019-05-12T08:50:04.624Z,1020.51
2019-05-12T08:51:05.336Z,1020.48
2019-05-12T08:52:03.825Z,1020.54
2019-05-12T08:53:04.449Z,1020.66
2019-05-12T08:54:03.106Z,1020.54
2019-05-12T08:55:04.241Z,1020.62
2019-05-12T08:56:04.979Z,1020.62
2019-05-12T08:57:03.881Z,1020.65
2019-05-12T08:58:03.773Z,1020.68
2019-05-12T08:59:04.125Z,1020.67
2019-05-12T09:00:03.432Z,1020.65
2019-05-12T09:01:04.453Z,1020.65
2019-05-12T09:02:07.438Z,1020.66
2019-05-12T09:03:03.584Z,1020.74
2019-05-12T09:04:06.663Z,1020.69
2019-05-12T09:05:04.726Z,1020.70
2019-05-12T09:06:03.934Z,1020.77
2019-05-12T09:07:01.751Z,1020.75
2019-05-12T09:08:03.711Z,1020.69
2019-05-12T09:09:03.475Z,1020.67
2019-05-12T09:10:03.992Z,1020.67
2019-05-12T09:11:03.532Z,1020.71
2019-05-12T09:12:03.526Z,1020.74
2019-05-12T09:13:04.080Z,1020.79
2019-05-12T09:14:03.542Z,1020.73
2019-05-12T09:15:04.276Z,1020.67
2019-05-12T09:16:01.654Z,1020.81
2019-05-12T09:17:03.960Z,1020.79
2019-05-12T09:18:04.656Z,1020.79
2019-05-12T09:19:01.596Z,1020.80
2019-05-12T09:20:05.988Z,1020.77
2019-05-12T09:21:03.814Z,1020.80
2019-05-12T09:22:05.530Z,1020.83
2019-05-12T09:23:04.680Z,1020.81
2019-05-12T09:24:03.959Z,1020.91
2019-05-12T09:25:06.174Z,1020.77
2019-05-12T09:26:04.107Z,1020.88
2019-05-12T09:27:04.976Z,1020.94
2019-05-12T09:28:03.879Z,1020.85
2019-05-12T09:29:03.468Z,1020.84
2019-05-12T09:30:07.993Z,1020.85
2019-05-12T09:31:03.722Z,1020.95
2019-05-12T09:32:05.502Z,1020.93
2019-05-12T09:33:04.096Z,1020.86
2019-05-12T09:34:05.966Z,1020.92
2019-05-12T09:35:03.999Z,1020.93
2019-05-12T09:36:01.409Z,1020.94
2019-05-12T09:37:03.828Z,1020.92
2019-05-12T09:38:03.705Z,1020.91
2019-05-12T09:39:02.949Z,1020.85
2019-05-12T09:40:01.361Z,1020.84
2019-05-12T09:41:02.501Z,1020.82
2019-05-12T09:42:03.582Z,1020.79
2019-05-12T09:43:08.624Z,1020.85
2019-05-12T09:44:04.416Z,1020.90
2019-05-12T09:45:06.114Z,1020.88
2019-05-12T09:46:04.153Z,1020.80
2019-05-12T09:47:01.287Z,1020.88
2019-05-12T09:48:07.102Z,1020.82
2019-05-12T09:49:04.049Z,1020.85
2019-05-12T09:50:01.310Z,1020.78
2019-05-12T09:51:04.265Z,1020.81
2019-05-12T09:52:03.569Z,1020.87
2019-05-12T09:53:09.376Z,1020.81
2019-05-12T09:54:02.243Z,1020.86
2019-05-12T09:55:01.219Z,1020.88
2019-05-12T09:56:01.220Z,1020.93
2019-05-12T09:57:01.187Z,1020.97
2019-05-12T09:58:03.774Z,1020.89
2019-05-12T09:59:02.871Z,1020.92
2019-05-12T10:00:04.384Z,1020.87
2019-05-12T10:01:03.482Z,1020.85
2019-05-12T10:02:03.544Z,1020.85
2019-05-12T10:03:01.130Z,1020.82
2019-05-12T10:04:03.335Z,1020.93
2019-05-12T10:05:01.783Z,1020.95
2019-05-12T10:06:03.568Z,1020.91
2019-05-12T10:07:01.074Z,1020.91
2019-05-12T10:08:01.060Z,1020.89
2019-05-12T10:09:03.302Z,1020.90
2019-05-12T10:10:03.462Z,1020.88
2019-05-12T10:11:01.050Z,1020.98
2019-05-12T10:12:02.405Z,1020.93
2019-05-12T10:13:01.002Z,1020.97
2019-05-12T10:14:06.401Z,1020.88
2019-05-12T10:15:04.081Z,1020.95
2019-05-12T10:16:04.898Z,1020.98
2019-05-12T10:17:03.643Z,1020.93
2019-05-12T10:18:06.418Z,1020.93
2019-05-12T10:19:04.010Z,1020.90
2019-05-12T10:20:00.919Z,1020.87
2019-05-12T10:21:00.918Z,1020.86
2019-05-12T10:22:00.902Z,1020.86
2019-05-12T10:23:00.897Z,1020.93
2019-05-12T10:24:02.787Z,1020.89
2019-05-12T10:25:00.880Z,1020.83
2019-05-12T10:26:01.564Z,1020.86
2019-05-12T10:27:03.730Z,1020.84
2019-05-12T10:28:05.272Z,1020.83
2019-05-12T10:29:14.233Z,1020.87
2019-05-12T10:30:03.183Z,1020.89
2019-05-12T10:31:04.013Z,1020.90
2019-05-12T10:32:00.798Z,1021.04
2019-05-12T10:33:00.785Z,1020.98
2019-05-12T10:34:00.769Z,1020.98
2019-05-12T10:35:00.751Z,1020.93
2019-05-12T10:36:06.811Z,1020.88
2019-05-12T10:37:03.772Z,1020.97
2019-05-12T10:38:06.193Z,1020.94
2019-05-12T10:39:01.731Z,1020.97
2019-05-12T10:40:00.729Z,1020.98
2019-05-12T10:41:00.721Z,1020.94
2019-05-12T10:42:00.725Z,1020.98
2019-05-12T10:43:00.806Z,1021.04
2019-05-12T10:44:00.674Z,1021.02
2019-05-12T10:45:00.663Z,1021.12
2019-05-12T10:46:00.699Z,1021.10
2019-05-12T10:47:00.677Z,1021.03
2019-05-12T10:48:00.672Z,1021.00
2019-05-12T10:49:00.627Z,1021.09
2019-05-12T10:50:00.611Z,1021.10
2019-05-12T10:51:00.612Z,1021.12
2019-05-12T10:52:00.574Z,1021.02
2019-05-12T10:53:00.580Z,1021.06
2019-05-12T10:54:07.739Z,1021.13
2019-05-12T10:55:01.555Z,1021.08
2019-05-12T10:56:00.602Z,1021.01
2019-05-12T10:57:00.565Z,1021.05
2019-05-12T10:58:01.777Z,1021.03
2019-05-12T10:59:00.546Z,1021.03
2019-05-12T11:00:00.569Z,1020.99
2019-05-12T11:01:05.392Z,1021.12
2019-05-12T11:02:03.377Z,1021.18
2019-05-12T11:03:01.521Z,1021.11
2019-05-12T11:04:03.816Z,1021.12
2019-05-12T11:05:00.481Z,1021.10
2019-05-12T11:06:02.507Z,1021.15
2019-05-12T11:07:00.434Z,1021.22
2019-05-12T11:08:05.618Z,1021.18
2019-05-12T11:09:03.607Z,1021.18
2019-05-12T11:10:05.177Z,1021.16
2019-05-12T11:11:01.435Z,1021.19
2019-05-12T11:12:00.391Z,1021.16
2019-05-12T11:13:07.543Z,1021.27
2019-05-12T11:14:03.813Z,1021.27
2019-05-12T11:15:01.365Z,1021.36
2019-05-12T11:16:03.639Z,1021.27
2019-05-12T11:17:02.257Z,1021.39
2019-05-12T11:18:01.295Z,1021.28
2019-05-12T11:19:05.640Z,1021.34
2019-05-12T11:20:03.967Z,1021.44
2019-05-12T11:21:00.301Z,1021.43
2019-05-12T11:22:00.309Z,1021.48
2019-05-12T11:23:00.247Z,1021.41
2019-05-12T11:24:00.229Z,1021.42
2019-05-12T11:25:00.216Z,1021.46
2019-05-12T11:26:00.215Z,1021.45
2019-05-12T11:27:00.187Z,1021.45
2019-05-12T11:28:00.258Z,1021.43
2019-05-12T11:29:00.188Z,1021.36
2019-05-12T11:30:00.196Z,1021.46
2019-05-12T11:31:00.147Z,1021.38
2019-05-12T11:32:00.165Z,1021.38
2019-05-12T11:33:00.137Z,1021.31
2019-05-12T11:34:00.109Z,1021.32
2019-05-12T11:35:00.105Z,1021.37
2019-05-12T11:36:00.084Z,1021.31
2019-05-12T11:37:00.080Z,1021.38
2019-05-12T11:38:00.087Z,1021.42
2019-05-12T11:39:00.050Z,1021.35
2019-05-12T11:40:00.086Z,1021.39
2019-05-12T11:41:00.053Z,1021.38
2019-05-12T11:42:00.049Z,1021.50
2019-05-12T11:43:03.512Z,1021.54
2019-05-12T11:44:00.008Z,1021.44
2019-05-12T11:45:00.082Z,1021.34
2019-05-12T11:46:00.040Z,1021.53
2019-05-12T11:46:59.975Z,1021.57
2019-05-12T11:48:07.929Z,1021.61
2019-05-12T11:49:00.987Z,1021.58
2019-05-12T11:50:05.058Z,1021.60
2019-05-12T11:51:00.989Z,1021.50
2019-05-12T11:52:01.103Z,1021.50
2019-05-12T11:53:01.012Z,1021.61
2019-05-12T11:54:03.492Z,1021.69
2019-05-12T11:55:00.879Z,1021.67
2019-05-12T11:56:02.290Z,1021.59
2019-05-12T11:57:01.001Z,1021.65
2019-05-12T11:58:06.778Z,1021.63
2019-05-12T11:59:00.859Z,1021.81
2019-05-12T12:00:02.236Z,1021.72
2019-05-12T12:01:04.744Z,1021.71
2019-05-12T12:02:00.872Z,1021.66
2019-05-12T12:03:03.877Z,1021.64
2019-05-12T12:04:00.789Z,1021.72
2019-05-12T12:04:59.784Z,1021.77